Webcam

2020/10/26 08:50 EBBR 260850Z 21012KT 9999 BKN022 10/06 Q1001 NOSIG

Webcam

--- Refresh now ---